sensor_id;sensor_type;location;lat;lon;timestamp;pressure;altitude;pressure_sealevel;temperature;humidity
77299;BME280;66361;52.034;20.656;2023-05-07T00:02:25;100372.34;;;5.50;100.00
77299;BME280;66361;52.034;20.656;2023-05-07T00:06:29;100378.50;;;5.49;100.00
77299;BME280;66361;52.034;20.656;2023-05-07T00:10:32;100364.56;;;5.49;100.00
77299;BME280;66361;52.034;20.656;2023-05-07T00:14:36;100360.34;;;5.45;100.00
77299;BME280;66361;52.034;20.656;2023-05-07T00:18:39;100370.03;;;5.43;100.00
77299;BME280;66361;52.034;20.656;2023-05-07T00:22:42;100365.72;;;5.42;100.00
77299;BME280;66361;52.034;20.656;2023-05-07T00:26:45;100363.28;;;5.37;100.00
77299;BME280;66361;52.034;20.656;2023-05-07T00:30:49;100377.22;;;5.37;100.00
77299;BME280;66361;52.034;20.656;2023-05-07T00:34:52;100375.63;;;5.33;100.00
77299;BME280;66361;52.034;20.656;2023-05-07T00:38:57;100373.06;;;5.32;100.00
77299;BME280;66361;52.034;20.656;2023-05-07T00:43:01;100387.06;;;5.31;100.00
77299;BME280;66361;52.034;20.656;2023-05-07T00:47:07;100394.84;;;5.32;100.00
77299;BME280;66361;52.034;20.656;2023-05-07T00:51:10;100404.56;;;5.29;100.00
77299;BME280;66361;52.034;20.656;2023-05-07T00:55:14;100398.47;;;5.28;100.00
77299;BME280;66361;52.034;20.656;2023-05-07T00:59:19;100401.06;;;5.30;100.00
77299;BME280;66361;52.034;20.656;2023-05-07T01:03:26;100398.34;;;5.31;100.00
77299;BME280;66361;52.034;20.656;2023-05-07T01:07:30;100388.88;;;5.29;100.00
77299;BME280;66361;52.034;20.656;2023-05-07T01:11:34;100390.72;;;5.27;100.00
77299;BME280;66361;52.034;20.656;2023-05-07T01:15:37;100400.31;;;5.26;100.00
77299;BME280;66361;52.034;20.656;2023-05-07T01:19:46;100405.56;;;5.26;100.00
77299;BME280;66361;52.034;20.656;2023-05-07T01:23:51;100407.22;;;5.27;100.00
77299;BME280;66361;52.034;20.656;2023-05-07T01:27:56;100409.84;;;5.27;100.00
77299;BME280;66361;52.034;20.656;2023-05-07T01:32:01;100401.09;;;5.28;100.00
77299;BME280;66361;52.034;20.656;2023-05-07T01:36:06;100403.84;;;5.25;100.00
77299;BME280;66361;52.034;20.656;2023-05-07T01:40:13;100395.13;;;5.25;100.00
77299;BME280;66361;52.034;20.656;2023-05-07T01:44:16;100403.84;;;5.25;100.00
77299;BME280;66361;52.034;20.656;2023-05-07T01:48:21;100403.13;;;5.20;100.00
77299;BME280;66361;52.034;20.656;2023-05-07T01:52:24;100399.59;;;5.23;100.00
77299;BME280;66361;52.034;20.656;2023-05-07T01:56:29;100407.31;;;5.26;100.00
77299;BME280;66361;52.034;20.656;2023-05-07T02:00:32;100408.09;;;5.28;100.00
77299;BME280;66361;52.034;20.656;2023-05-07T02:04:35;100406.41;;;5.27;100.00
77299;BME280;66361;52.034;20.656;2023-05-07T02:08:37;100420.28;;;5.29;100.00
77299;BME280;66361;52.034;20.656;2023-05-07T02:12:42;100405.38;;;5.31;100.00
77299;BME280;66361;52.034;20.656;2023-05-07T02:16:46;100407.19;;;5.29;100.00
77299;BME280;66361;52.034;20.656;2023-05-07T02:20:49;100406.34;;;5.28;100.00
77299;BME280;66361;52.034;20.656;2023-05-07T02:24:52;100415.03;;;5.29;100.00
77299;BME280;66361;52.034;20.656;2023-05-07T02:28:56;100417.66;;;5.29;100.00
77299;BME280;66361;52.034;20.656;2023-05-07T02:32:59;100422.03;;;5.28;100.00
77299;BME280;66361;52.034;20.656;2023-05-07T02:37:02;100425.50;;;5.29;100.00
77299;BME280;66361;52.034;20.656;2023-05-07T02:41:05;100428.88;;;5.32;100.00
77299;BME280;66361;52.034;20.656;2023-05-07T02:45:10;100428.88;;;5.32;100.00
77299;BME280;66361;52.034;20.656;2023-05-07T02:49:13;100434.25;;;5.28;100.00
77299;BME280;66361;52.034;20.656;2023-05-07T02:53:17;100432.63;;;5.25;100.00
77299;BME280;66361;52.034;20.656;2023-05-07T02:57:20;100437.91;;;5.24;100.00
77299;BME280;66361;52.034;20.656;2023-05-07T03:01:24;100438.75;;;5.24;100.00
77299;BME280;66361;52.034;20.656;2023-05-07T03:05:28;100441.38;;;5.24;100.00
77299;BME280;66361;52.034;20.656;2023-05-07T03:09:31;100443.94;;;5.26;100.00
77299;BME280;66361;52.034;20.656;2023-05-07T03:13:34;100439.44;;;5.29;100.00
77299;BME280;66361;52.034;20.656;2023-05-07T03:17:39;100440.34;;;5.28;100.00
77299;BME280;66361;52.034;20.656;2023-05-07T03:21:42;100449.00;;;5.30;100.00
77299;BME280;66361;52.034;20.656;2023-05-07T03:25:45;100449.91;;;5.29;100.00
77299;BME280;66361;52.034;20.656;2023-05-07T03:29:48;100448.16;;;5.30;100.00
77299;BME280;66361;52.034;20.656;2023-05-07T03:33:53;100448.91;;;5.33;100.00
77299;BME280;66361;52.034;20.656;2023-05-07T03:37:56;100449.81;;;5.32;100.00
77299;BME280;66361;52.034;20.656;2023-05-07T03:41:59;100462.75;;;5.35;100.00
77299;BME280;66361;52.034;20.656;2023-05-07T03:46:04;100469.69;;;5.38;100.00
77299;BME280;66361;52.034;20.656;2023-05-07T03:50:09;100470.56;;;5.37;100.00
77299;BME280;66361;52.034;20.656;2023-05-07T03:54:13;100472.28;;;5.38;100.00
77299;BME280;66361;52.034;20.656;2023-05-07T03:58:16;100484.53;;;5.37;100.00
77299;BME280;66361;52.034;20.656;2023-05-07T04:02:20;100487.03;;;5.41;100.00
77299;BME280;66361;52.034;20.656;2023-05-07T04:06:25;100477.34;;;5.43;100.00
77299;BME280;66361;52.034;20.656;2023-05-07T04:10:32;100484.28;;;5.44;100.00
77299;BME280;66361;52.034;20.656;2023-05-07T04:14:34;100500.06;;;5.42;100.00
77299;BME280;66361;52.034;20.656;2023-05-07T04:18:37;100501.72;;;5.45;100.00
77299;BME280;66361;52.034;20.656;2023-05-07T04:22:42;100501.59;;;5.48;100.00
77299;BME280;66361;52.034;20.656;2023-05-07T04:26:46;100516.44;;;5.47;100.00
77299;BME280;66361;52.034;20.656;2023-05-07T04:30:48;100503.56;;;5.41;100.00
77299;BME280;66361;52.034;20.656;2023-05-07T04:34:51;100521.66;;;5.47;100.00
77299;BME280;66361;52.034;20.656;2023-05-07T04:38:55;100526.16;;;5.44;100.00
77299;BME280;66361;52.034;20.656;2023-05-07T04:42:58;100529.59;;;5.46;100.00
77299;BME280;66361;52.034;20.656;2023-05-07T04:47:01;100534.66;;;5.50;100.00
77299;BME280;66361;52.034;20.656;2023-05-07T04:51:04;100538.84;;;5.54;100.00
77299;BME280;66361;52.034;20.656;2023-05-07T04:55:09;100547.56;;;5.55;100.00
77299;BME280;66361;52.034;20.656;2023-05-07T04:59:12;100546.50;;;5.60;100.00
77299;BME280;66361;52.034;20.656;2023-05-07T05:03:15;100557.09;;;5.57;100.00
77299;BME280;66361;52.034;20.656;2023-05-07T05:07:19;100552.69;;;5.58;100.00
77299;BME280;66361;52.034;20.656;2023-05-07T05:11:23;100561.38;;;5.60;100.00
77299;BME280;66361;52.034;20.656;2023-05-07T05:15:26;100565.63;;;5.62;100.00
77299;BME280;66361;52.034;20.656;2023-05-07T05:19:32;100569.09;;;5.63;100.00
77299;BME280;66361;52.034;20.656;2023-05-07T05:23:34;100562.00;;;5.66;100.00
77299;BME280;66361;52.034;20.656;2023-05-07T05:27:39;100568.72;;;5.73;100.00
77299;BME280;66361;52.034;20.656;2023-05-07T05:31:42;100569.28;;;5.81;100.00
77299;BME280;66361;52.034;20.656;2023-05-07T05:35:45;100569.97;;;5.86;100.00
77299;BME280;66361;52.034;20.656;2023-05-07T05:39:48;100572.38;;;5.93;100.00
77299;BME280;66361;52.034;20.656;2023-05-07T05:43:52;100581.78;;;5.98;100.00
77299;BME280;66361;52.034;20.656;2023-05-07T05:47:56;100584.28;;;6.01;100.00
77299;BME280;66361;52.034;20.656;2023-05-07T05:51:59;100583.38;;;6.02;100.00
77299;BME280;66361;52.034;20.656;2023-05-07T05:56:02;100589.41;;;6.04;100.00
77299;BME280;66361;52.034;20.656;2023-05-07T06:00:08;100596.97;;;6.12;100.00
77299;BME280;66361;52.034;20.656;2023-05-07T06:04:11;100599.31;;;6.19;100.00
77299;BME280;66361;52.034;20.656;2023-05-07T06:08:14;100613.94;;;6.25;99.96
77299;BME280;66361;52.034;20.656;2023-05-07T06:12:18;100618.22;;;6.27;100.00
77299;BME280;66361;52.034;20.656;2023-05-07T06:16:24;100630.31;;;6.31;99.99
77299;BME280;66361;52.034;20.656;2023-05-07T06:20:27;100626.44;;;6.40;98.71
77299;BME280;66361;52.034;20.656;2023-05-07T06:24:32;100610.22;;;6.54;98.30
77299;BME280;66361;52.034;20.656;2023-05-07T06:28:36;100603.16;;;6.99;94.97
77299;BME280;66361;52.034;20.656;2023-05-07T06:32:41;100600.16;;;7.49;92.74
77299;BME280;66361;52.034;20.656;2023-05-07T06:36:45;100602.16;;;7.44;90.40
77299;BME280;66361;52.034;20.656;2023-05-07T06:40:48;100609.22;;;7.42;89.51
77299;BME280;66361;52.034;20.656;2023-05-07T06:44:51;100608.72;;;7.34;90.58
77299;BME280;66361;52.034;20.656;2023-05-07T06:48:55;100616.97;;;7.24;90.82
77299;BME280;66361;52.034;20.656;2023-05-07T06:52:59;100624.13;;;7.41;90.83
77299;BME280;66361;52.034;20.656;2023-05-07T06:57:02;100633.53;;;7.47;88.98
77299;BME280;66361;52.034;20.656;2023-05-07T07:01:05;100637.59;;;7.34;87.73
77299;BME280;66361;52.034;20.656;2023-05-07T07:05:09;100646.63;;;7.26;90.27
77299;BME280;66361;52.034;20.656;2023-05-07T07:09:12;100645.09;;;7.43;90.04
77299;BME280;66361;52.034;20.656;2023-05-07T07:13:16;100648.97;;;7.54;89.08
77299;BME280;66361;52.034;20.656;2023-05-07T07:17:18;100643.97;;;7.68;89.50
77299;BME280;66361;52.034;20.656;2023-05-07T07:21:23;100637.47;;;7.97;86.33
77299;BME280;66361;52.034;20.656;2023-05-07T07:25:26;100645.59;;;8.30;83.12
77299;BME280;66361;52.034;20.656;2023-05-07T07:29:29;100655.56;;;8.61;83.52
77299;BME280;66361;52.034;20.656;2023-05-07T07:33:32;100660.59;;;8.47;81.94
77299;BME280;66361;52.034;20.656;2023-05-07T07:37:36;100652.97;;;8.22;81.84
77299;BME280;66361;52.034;20.656;2023-05-07T07:41:40;100644.03;;;8.26;82.97
77299;BME280;66361;52.034;20.656;2023-05-07T07:45:43;100648.03;;;8.35;82.25
77299;BME280;66361;52.034;20.656;2023-05-07T07:49:47;100649.50;;;8.40;82.97
77299;BME280;66361;52.034;20.656;2023-05-07T07:53:51;100663.47;;;8.42;83.45
77299;BME280;66361;52.034;20.656;2023-05-07T07:57:54;100659.66;;;8.29;81.88
77299;BME280;66361;52.034;20.656;2023-05-07T08:01:57;100664.78;;;8.32;82.26
77299;BME280;66361;52.034;20.656;2023-05-07T08:06:00;100671.19;;;8.45;80.22
77299;BME280;66361;52.034;20.656;2023-05-07T08:10:05;100668.97;;;8.36;81.25
77299;BME280;66361;52.034;20.656;2023-05-07T08:14:08;100682.59;;;8.64;80.33
77299;BME280;66361;52.034;20.656;2023-05-07T08:18:11;100682.84;;;8.96;78.21
77299;BME280;66361;52.034;20.656;2023-05-07T08:22:13;100682.97;;;9.11;77.81
77299;BME280;66361;52.034;20.656;2023-05-07T08:26:18;100694.09;;;8.81;78.09
77299;BME280;66361;52.034;20.656;2023-05-07T08:30:21;100710.47;;;8.68;77.29
77299;BME280;66361;52.034;20.656;2023-05-07T08:34:24;100692.97;;;8.49;79.36
77299;BME280;66361;52.034;20.656;2023-05-07T08:38:27;100701.63;;;8.51;78.02
77299;BME280;66361;52.034;20.656;2023-05-07T08:42:35;100716.66;;;8.67;77.97
77299;BME280;66361;52.034;20.656;2023-05-07T08:46:39;100720.59;;;8.57;77.57
77299;BME280;66361;52.034;20.656;2023-05-07T08:50:44;100715.72;;;8.50;76.97
77299;BME280;66361;52.034;20.656;2023-05-07T08:54:47;100709.84;;;8.43;78.32
77299;BME280;66361;52.034;20.656;2023-05-07T08:58:52;100711.59;;;8.63;77.64
77299;BME280;66361;52.034;20.656;2023-05-07T09:02:58;100709.88;;;8.81;77.59
77299;BME280;66361;52.034;20.656;2023-05-07T09:07:01;100719.78;;;8.75;78.15
77299;BME280;66361;52.034;20.656;2023-05-07T09:11:06;100724.03;;;8.59;77.23
77299;BME280;66361;52.034;20.656;2023-05-07T09:15:11;100724.44;;;8.50;77.16
77299;BME280;66361;52.034;20.656;2023-05-07T09:19:14;100742.44;;;8.41;77.05
77299;BME280;66361;52.034;20.656;2023-05-07T09:23:20;100750.22;;;8.23;77.99
77299;BME280;66361;52.034;20.656;2023-05-07T09:27:23;100751.38;;;8.16;78.34
77299;BME280;66361;52.034;20.656;2023-05-07T09:31:28;100753.91;;;8.19;80.28
77299;BME280;66361;52.034;20.656;2023-05-07T09:35:31;100754.13;;;8.13;80.65
77299;BME280;66361;52.034;20.656;2023-05-07T09:39:40;100763.81;;;8.13;80.96
77299;BME280;66361;52.034;20.656;2023-05-07T09:43:43;100756.84;;;8.12;80.86
77299;BME280;66361;52.034;20.656;2023-05-07T09:47:48;100767.88;;;8.20;80.69
77299;BME280;66361;52.034;20.656;2023-05-07T09:51:52;100765.13;;;8.62;79.43
77299;BME280;66361;52.034;20.656;2023-05-07T09:55:57;100778.09;;;9.04;75.25
77299;BME280;66361;52.034;20.656;2023-05-07T10:00:06;100781.25;;;8.93;73.92
77299;BME280;66361;52.034;20.656;2023-05-07T10:04:11;100788.50;;;9.07;73.93
77299;BME280;66361;52.034;20.656;2023-05-07T10:08:15;100791.13;;;9.44;70.81
77299;BME280;66361;52.034;20.656;2023-05-07T10:12:17;100792.31;;;9.56;68.49
77299;BME280;66361;52.034;20.656;2023-05-07T10:16:21;100796.41;;;9.44;68.79
77299;BME280;66361;52.034;20.656;2023-05-07T10:20:26;100791.34;;;9.58;70.48
77299;BME280;66361;52.034;20.656;2023-05-07T10:24:32;100796.75;;;9.91;67.51
77299;BME280;66361;52.034;20.656;2023-05-07T10:28:38;100778.41;;;10.40;66.68
77299;BME280;66361;52.034;20.656;2023-05-07T10:32:48;100780.44;;;11.00;63.84
77299;BME280;66361;52.034;20.656;2023-05-07T10:36:54;100791.03;;;11.16;62.57
77299;BME280;66361;52.034;20.656;2023-05-07T10:40:58;100791.25;;;10.63;63.12
77299;BME280;66361;52.034;20.656;2023-05-07T10:45:12;100804.25;;;10.83;61.83
77299;BME280;66361;52.034;20.656;2023-05-07T10:49:15;100806.56;;;11.22;61.94
77299;BME280;66361;52.034;20.656;2023-05-07T10:53:26;100805.44;;;11.26;59.86
77299;BME280;66361;52.034;20.656;2023-05-07T10:57:33;100805.72;;;11.37;59.70
77299;BME280;66361;52.034;20.656;2023-05-07T11:02:03;100804.09;;;11.19;62.15
77299;BME280;66361;52.034;20.656;2023-05-07T11:06:12;100806.16;;;10.97;62.56
77299;BME280;66361;52.034;20.656;2023-05-07T11:10:17;100808.53;;;11.01;60.91
77299;BME280;66361;52.034;20.656;2023-05-07T11:14:43;100811.91;;;11.21;62.49
77299;BME280;66361;52.034;20.656;2023-05-07T11:18:47;100819.59;;;10.92;61.67
77299;BME280;66361;52.034;20.656;2023-05-07T11:22:51;100813.75;;;10.70;61.85
77299;BME280;66361;52.034;20.656;2023-05-07T11:26:58;100812.72;;;10.73;61.09
77299;BME280;66361;52.034;20.656;2023-05-07T11:31:02;100820.66;;;10.73;60.26
77299;BME280;66361;52.034;20.656;2023-05-07T11:35:06;100817.28;;;10.53;61.83
77299;BME280;66361;52.034;20.656;2023-05-07T11:39:24;100820.47;;;10.43;62.58
77299;BME280;66361;52.034;20.656;2023-05-07T11:43:31;100824.72;;;10.62;64.12
77299;BME280;66361;52.034;20.656;2023-05-07T11:47:38;100827.81;;;11.03;63.82
77299;BME280;66361;52.034;20.656;2023-05-07T11:51:44;100836.34;;;11.08;59.95
77299;BME280;66361;52.034;20.656;2023-05-07T11:55:52;100829.94;;;10.97;60.64
77299;BME280;66361;52.034;20.656;2023-05-07T11:59:56;100841.25;;;11.32;61.70
77299;BME280;66361;52.034;20.656;2023-05-07T12:04:03;100834.69;;;11.70;59.14
77299;BME280;66361;52.034;20.656;2023-05-07T12:08:06;100842.59;;;11.86;59.50
77299;BME280;66361;52.034;20.656;2023-05-07T12:12:10;100850.63;;;11.68;58.67
77299;BME280;66361;52.034;20.656;2023-05-07T12:16:22;100849.94;;;11.65;57.49
77299;BME280;66361;52.034;20.656;2023-05-07T12:20:29;100841.44;;;11.76;58.21
77299;BME280;66361;52.034;20.656;2023-05-07T12:24:43;100848.25;;;11.64;60.11
77299;BME280;66361;52.034;20.656;2023-05-07T12:28:47;100839.16;;;11.99;57.45
77299;BME280;66361;52.034;20.656;2023-05-07T12:32:53;100854.72;;;11.90;56.96
77299;BME280;66361;52.034;20.656;2023-05-07T12:36:57;100854.38;;;11.33;58.29
77299;BME280;66361;52.034;20.656;2023-05-07T12:41:00;100849.50;;;10.93;59.80
77299;BME280;66361;52.034;20.656;2023-05-07T12:45:13;100865.19;;;10.79;61.09
77299;BME280;66361;52.034;20.656;2023-05-07T12:49:20;100861.25;;;10.87;60.83
77299;BME280;66361;52.034;20.656;2023-05-07T12:53:27;100861.94;;;10.91;60.41
77299;BME280;66361;52.034;20.656;2023-05-07T12:57:29;100856.53;;;10.77;59.84
77299;BME280;66361;52.034;20.656;2023-05-07T13:01:34;100870.28;;;10.49;61.29
77299;BME280;66361;52.034;20.656;2023-05-07T13:05:39;100870.75;;;10.22;61.98
77299;BME280;66361;52.034;20.656;2023-05-07T13:09:42;100864.84;;;10.35;63.11
77299;BME280;66361;52.034;20.656;2023-05-07T13:13:44;100860.25;;;10.73;61.44
77299;BME280;66361;52.034;20.656;2023-05-07T13:17:48;100867.31;;;10.89;60.63
77299;BME280;66361;52.034;20.656;2023-05-07T13:21:53;100862.63;;;10.94;60.05
77299;BME280;66361;52.034;20.656;2023-05-07T13:25:56;100853.19;;;11.54;57.81
77299;BME280;66361;52.034;20.656;2023-05-07T13:30:01;100847.56;;;11.60;58.09
77299;BME280;66361;52.034;20.656;2023-05-07T13:34:04;100857.13;;;11.47;59.27
77299;BME280;66361;52.034;20.656;2023-05-07T13:38:08;100868.69;;;11.29;57.94
77299;BME280;66361;52.034;20.656;2023-05-07T13:42:11;100845.69;;;10.98;59.27
77299;BME280;66361;52.034;20.656;2023-05-07T13:46:16;100846.94;;;10.91;60.64
77299;BME280;66361;52.034;20.656;2023-05-07T13:50:29;100855.78;;;10.75;61.65
77299;BME280;66361;52.034;20.656;2023-05-07T13:54:33;100849.94;;;11.34;59.63
77299;BME280;66361;52.034;20.656;2023-05-07T13:58:36;100859.66;;;11.96;56.15
77299;BME280;66361;52.034;20.656;2023-05-07T14:02:59;100858.41;;;11.72;56.14
77299;BME280;66361;52.034;20.656;2023-05-07T14:07:02;100858.06;;;11.31;56.20
77299;BME280;66361;52.034;20.656;2023-05-07T14:11:06;100861.13;;;11.23;58.17
77299;BME280;66361;52.034;20.656;2023-05-07T14:15:10;100872.31;;;11.11;58.16
77299;BME280;66361;52.034;20.656;2023-05-07T14:19:13;100870.16;;;11.35;57.30
77299;BME280;66361;52.034;20.656;2023-05-07T14:23:15;100874.25;;;11.40;58.38
77299;BME280;66361;52.034;20.656;2023-05-07T14:27:22;100875.44;;;11.35;58.38
77299;BME280;66361;52.034;20.656;2023-05-07T14:31:25;100874.47;;;11.20;58.69
77299;BME280;66361;52.034;20.656;2023-05-07T14:35:29;100881.56;;;11.02;59.82
77299;BME280;66361;52.034;20.656;2023-05-07T14:39:31;100876.41;;;11.16;59.37
77299;BME280;66361;52.034;20.656;2023-05-07T14:43:36;100876.78;;;11.26;58.11
77299;BME280;66361;52.034;20.656;2023-05-07T14:47:39;100876.56;;;11.62;53.88
77299;BME280;66361;52.034;20.656;2023-05-07T14:51:42;100884.16;;;11.52;54.59
77299;BME280;66361;52.034;20.656;2023-05-07T14:55:47;100872.97;;;11.63;55.18
77299;BME280;66361;52.034;20.656;2023-05-07T14:59:51;100878.94;;;11.66;53.84
77299;BME280;66361;52.034;20.656;2023-05-07T15:03:54;100882.63;;;11.64;54.75
77299;BME280;66361;52.034;20.656;2023-05-07T15:07:57;100884.66;;;11.59;56.24
77299;BME280;66361;52.034;20.656;2023-05-07T15:12:00;100894.03;;;11.33;55.83
77299;BME280;66361;52.034;20.656;2023-05-07T15:16:04;100888.78;;;11.16;56.25
77299;BME280;66361;52.034;20.656;2023-05-07T15:20:08;100892.13;;;11.02;57.10
77299;BME280;66361;52.034;20.656;2023-05-07T15:24:14;100900.22;;;10.99;58.42
77299;BME280;66361;52.034;20.656;2023-05-07T15:28:18;100904.00;;;10.94;57.59
77299;BME280;66361;52.034;20.656;2023-05-07T15:32:22;100900.63;;;10.92;57.55
77299;BME280;66361;52.034;20.656;2023-05-07T15:36:26;100906.28;;;10.84;58.53
77299;BME280;66361;52.034;20.656;2023-05-07T15:40:29;100905.31;;;10.69;58.10
77299;BME280;66361;52.034;20.656;2023-05-07T15:44:33;100908.50;;;10.59;59.02
77299;BME280;66361;52.034;20.656;2023-05-07T15:48:38;100915.72;;;10.55;59.92
77299;BME280;66361;52.034;20.656;2023-05-07T15:52:41;100905.16;;;10.55;58.15
77299;BME280;66361;52.034;20.656;2023-05-07T15:56:46;100903.03;;;10.45;58.76
77299;BME280;66361;52.034;20.656;2023-05-07T16:00:49;100912.91;;;10.41;58.39
77299;BME280;66361;52.034;20.656;2023-05-07T16:04:53;100902.59;;;10.37;60.82
77299;BME280;66361;52.034;20.656;2023-05-07T16:08:56;100903.19;;;10.25;60.35
77299;BME280;66361;52.034;20.656;2023-05-07T16:12:59;100911.88;;;10.27;60.06
77299;BME280;66361;52.034;20.656;2023-05-07T16:17:03;100910.78;;;10.31;57.82
77299;BME280;66361;52.034;20.656;2023-05-07T16:21:08;100902.78;;;10.15;58.65
77299;BME280;66361;52.034;20.656;2023-05-07T16:25:12;100910.63;;;10.16;58.66
77299;BME280;66361;52.034;20.656;2023-05-07T16:29:16;100901.53;;;10.05;58.87
77299;BME280;66361;52.034;20.656;2023-05-07T16:33:24;100904.03;;;9.89;60.15
77299;BME280;66361;52.034;20.656;2023-05-07T16:37:28;100894.16;;;9.76;60.51
77299;BME280;66361;52.034;20.656;2023-05-07T16:41:31;100904.31;;;9.66;60.97
77299;BME280;66361;52.034;20.656;2023-05-07T16:45:35;100909.63;;;9.64;61.76
77299;BME280;66361;52.034;20.656;2023-05-07T16:49:37;100905.94;;;9.50;62.17
77299;BME280;66361;52.034;20.656;2023-05-07T16:53:42;100910.69;;;9.42;63.72
77299;BME280;66361;52.034;20.656;2023-05-07T16:57:45;100911.72;;;9.39;63.70
77299;BME280;66361;52.034;20.656;2023-05-07T17:01:48;100903.41;;;9.28;64.49
77299;BME280;66361;52.034;20.656;2023-05-07T17:05:52;100900.66;;;9.11;64.91
77299;BME280;66361;52.034;20.656;2023-05-07T17:09:57;100898.94;;;9.10;64.98
77299;BME280;66361;52.034;20.656;2023-05-07T17:14:00;100899.22;;;9.04;64.10
77299;BME280;66361;52.034;20.656;2023-05-07T17:18:06;100914.84;;;8.88;65.45
77299;BME280;66361;52.034;20.656;2023-05-07T17:22:09;100908.47;;;8.73;65.63
77299;BME280;66361;52.034;20.656;2023-05-07T17:26:14;100910.69;;;8.62;65.34
77299;BME280;66361;52.034;20.656;2023-05-07T17:30:17;100920.97;;;8.48;66.56
77299;BME280;66361;52.034;20.656;2023-05-07T17:34:19;100921.72;;;8.30;67.71
77299;BME280;66361;52.034;20.656;2023-05-07T17:38:22;100924.69;;;8.01;70.37
77299;BME280;66361;52.034;20.656;2023-05-07T17:42:28;100925.63;;;7.76;72.53
77299;BME280;66361;52.034;20.656;2023-05-07T17:46:33;100926.03;;;7.44;74.70
77299;BME280;66361;52.034;20.656;2023-05-07T17:50:36;100922.13;;;7.08;77.71
77299;BME280;66361;52.034;20.656;2023-05-07T17:54:39;100940.88;;;6.71;79.72
77299;BME280;66361;52.034;20.656;2023-05-07T17:58:44;100942.03;;;6.38;81.20
77299;BME280;66361;52.034;20.656;2023-05-07T18:02:59;100950.09;;;6.05;82.25
77299;BME280;66361;52.034;20.656;2023-05-07T18:07:02;100951.72;;;5.80;83.14
77299;BME280;66361;52.034;20.656;2023-05-07T18:11:05;100950.75;;;5.55;84.90
77299;BME280;66361;52.034;20.656;2023-05-07T18:15:10;100954.91;;;5.32;86.01
77299;BME280;66361;52.034;20.656;2023-05-07T18:19:13;100969.38;;;5.15;89.20
77299;BME280;66361;52.034;20.656;2023-05-07T18:23:16;100970.78;;;4.96;90.99
77299;BME280;66361;52.034;20.656;2023-05-07T18:27:19;100969.50;;;4.78;92.74
77299;BME280;66361;52.034;20.656;2023-05-07T18:31:23;100963.81;;;4.62;94.74
77299;BME280;66361;52.034;20.656;2023-05-07T18:35:26;100974.69;;;4.46;96.06
77299;BME280;66361;52.034;20.656;2023-05-07T18:39:30;100978.63;;;4.26;96.48
77299;BME280;66361;52.034;20.656;2023-05-07T18:43:32;100986.88;;;4.10;97.47
77299;BME280;66361;52.034;20.656;2023-05-07T18:47:37;100980.31;;;3.92;98.19
77299;BME280;66361;52.034;20.656;2023-05-07T18:51:41;100988.50;;;3.77;99.91
77299;BME280;66361;52.034;20.656;2023-05-07T18:55:48;100996.53;;;3.66;100.00
77299;BME280;66361;52.034;20.656;2023-05-07T18:59:51;101001.13;;;3.55;100.00
77299;BME280;66361;52.034;20.656;2023-05-07T19:03:56;101013.53;;;3.44;100.00
77299;BME280;66361;52.034;20.656;2023-05-07T19:07:59;101009.38;;;3.34;100.00
77299;BME280;66361;52.034;20.656;2023-05-07T19:12:03;101022.66;;;3.23;100.00
77299;BME280;66361;52.034;20.656;2023-05-07T19:16:06;101026.31;;;3.13;100.00
77299;BME280;66361;52.034;20.656;2023-05-07T19:20:14;101025.56;;;3.07;100.00
77299;BME280;66361;52.034;20.656;2023-05-07T19:24:17;101027.53;;;2.94;100.00
77299;BME280;66361;52.034;20.656;2023-05-07T19:28:20;101031.16;;;2.87;100.00
77299;BME280;66361;52.034;20.656;2023-05-07T19:32:23;101042.59;;;2.78;100.00
77299;BME280;66361;52.034;20.656;2023-05-07T19:36:28;101034.88;;;2.72;100.00
77299;BME280;66361;52.034;20.656;2023-05-07T19:40:32;101047.13;;;2.66;100.00
77299;BME280;66361;52.034;20.656;2023-05-07T19:44:35;101051.59;;;2.59;100.00
77299;BME280;66361;52.034;20.656;2023-05-07T19:48:38;101040.34;;;2.56;100.00
77299;BME280;66361;52.034;20.656;2023-05-07T19:52:42;101044.78;;;2.51;100.00
77299;BME280;66361;52.034;20.656;2023-05-07T19:56:46;101048.31;;;2.46;100.00
77299;BME280;66361;52.034;20.656;2023-05-07T20:00:49;101050.94;;;2.45;100.00
77299;BME280;66361;52.034;20.656;2023-05-07T20:04:51;101048.41;;;2.40;100.00
77299;BME280;66361;52.034;20.656;2023-05-07T20:08:57;101045.91;;;2.34;100.00
77299;BME280;66361;52.034;20.656;2023-05-07T20:13:00;101051.22;;;2.27;100.00
77299;BME280;66361;52.034;20.656;2023-05-07T20:17:05;101058.28;;;2.19;100.00
77299;BME280;66361;52.034;20.656;2023-05-07T20:21:08;101062.78;;;2.08;100.00
77299;BME280;66361;52.034;20.656;2023-05-07T20:25:12;101058.59;;;1.96;100.00
77299;BME280;66361;52.034;20.656;2023-05-07T20:29:16;101071.72;;;1.87;100.00
77299;BME280;66361;52.034;20.656;2023-05-07T20:33:19;101069.22;;;1.79;100.00
77299;BME280;66361;52.034;20.656;2023-05-07T20:37:22;101065.84;;;1.73;100.00
77299;BME280;66361;52.034;20.656;2023-05-07T20:41:34;101070.25;;;1.66;100.00
77299;BME280;66361;52.034;20.656;2023-05-07T20:45:37;101080.72;;;1.62;100.00
77299;BME280;66361;52.034;20.656;2023-05-07T20:49:41;101082.56;;;1.52;100.00
77299;BME280;66361;52.034;20.656;2023-05-07T20:53:44;101084.38;;;1.45;100.00
77299;BME280;66361;52.034;20.656;2023-05-07T20:57:52;101082.72;;;1.38;100.00
77299;BME280;66361;52.034;20.656;2023-05-07T21:01:55;101085.44;;;1.29;100.00
77299;BME280;66361;52.034;20.656;2023-05-07T21:06:01;101094.16;;;1.22;100.00